createdAt,value
2024-04-10T00:05:00.623Z,78.90
2024-04-10T00:10:04.779Z,78.19
2024-04-10T00:15:07.998Z,76.34
2024-04-10T00:20:10.956Z,75.49
2024-04-10T00:25:14.304Z,75.07
2024-04-10T00:30:17.300Z,75.37
2024-04-10T00:35:21.191Z,75.31
2024-04-10T00:40:24.125Z,75.62
2024-04-10T00:45:27.260Z,75.36
2024-04-10T00:50:30.733Z,74.97
2024-04-10T00:55:34.674Z,75.92
2024-04-10T01:00:38.610Z,74.67
2024-04-10T01:05:41.701Z,75.88
2024-04-10T01:10:44.925Z,75.44
2024-04-10T01:15:48.281Z,75.23
2024-04-10T01:20:52.246Z,75.25
2024-04-10T01:25:55.400Z,74.62
2024-04-10T01:30:58.575Z,74.84
2024-04-10T01:36:01.708Z,74.42
2024-04-10T01:41:04.825Z,75.64
2024-04-10T01:46:08.197Z,75.63
2024-04-10T01:51:11.395Z,76.50
2024-04-10T01:56:14.589Z,76.44
2024-04-10T02:01:18.065Z,77.45
2024-04-10T02:06:21.221Z,77.58
2024-04-10T02:11:27.668Z,76.45
2024-04-10T02:16:31.291Z,76.82
2024-04-10T02:21:34.435Z,77.62
2024-04-10T02:26:37.568Z,76.47
2024-04-10T02:31:41.051Z,76.60
2024-04-10T02:36:44.181Z,77.92
2024-04-10T02:41:47.171Z,77.07
2024-04-10T02:46:50.901Z,77.07
2024-04-10T02:51:54.293Z,76.99
2024-04-10T02:56:57.201Z,76.20
2024-04-10T03:02:00.555Z,76.91
2024-04-10T03:07:04.738Z,76.61
2024-04-10T03:12:09.020Z,77.09
2024-04-10T03:17:13.488Z,77.07
2024-04-10T03:22:17.431Z,76.83
2024-04-10T03:27:20.754Z,77.57
2024-04-10T03:32:24.043Z,78.24
2024-04-10T03:37:27.774Z,79.02
2024-04-10T03:42:30.777Z,79.09
2024-04-10T03:47:33.926Z,78.85
2024-04-10T03:52:36.880Z,80.61
2024-04-10T03:57:39.741Z,81.06
2024-04-10T04:02:43.624Z,81.44
2024-04-10T04:07:46.612Z,81.56
2024-04-10T04:12:49.554Z,82.20
2024-04-10T04:17:52.870Z,80.17
2024-04-10T04:22:55.938Z,79.55
2024-04-10T04:27:58.831Z,78.59
2024-04-10T04:33:02.296Z,78.11
2024-04-10T04:38:05.775Z,76.94
2024-04-10T04:43:11.929Z,75.90
2024-04-10T04:48:15.125Z,74.90
2024-04-10T04:53:18.380Z,73.01
2024-04-10T04:58:24.435Z,71.72
2024-04-10T05:03:47.956Z,70.44
2024-04-10T05:08:51.228Z,67.77
2024-04-10T05:13:54.562Z,66.16
2024-04-10T05:18:59.480Z,64.50
2024-04-10T05:24:02.385Z,62.78
2024-04-10T05:29:05.519Z,60.57
2024-04-10T05:34:08.675Z,58.71
2024-04-10T05:39:20.340Z,57.27
2024-04-10T05:44:24.875Z,53.26
2024-04-10T05:49:29.787Z,53.52
2024-04-10T05:54:32.694Z,53.51
2024-04-10T05:59:35.859Z,50.21
2024-04-10T06:04:40.302Z,47.92
2024-04-10T06:09:43.545Z,47.36
2024-04-10T06:14:46.835Z,46.85
2024-04-10T06:19:50.441Z,45.13
2024-04-10T06:24:53.691Z,46.53
2024-04-10T06:29:56.785Z,43.70
2024-04-10T06:34:59.913Z,43.63
2024-04-10T06:40:03.233Z,41.78
2024-04-10T06:45:07.030Z,42.01
2024-04-10T06:50:14.204Z,40.28
2024-04-10T06:55:17.448Z,40.57
2024-04-10T07:00:23.651Z,39.47
2024-04-10T07:05:26.754Z,40.29
2024-04-10T07:10:30.140Z,38.70
2024-04-10T07:15:33.452Z,36.50
2024-04-10T07:20:36.677Z,35.93
2024-04-10T07:25:40.278Z,38.04
2024-04-10T07:30:51.414Z,40.34
2024-04-10T07:35:54.477Z,40.64
2024-04-10T07:40:57.945Z,39.40
2024-04-10T07:46:08.277Z,35.63
2024-04-10T07:51:14.551Z,33.82
2024-04-10T07:56:18.931Z,31.29
2024-04-10T08:01:23.955Z,31.37
2024-04-10T08:06:27.140Z,28.23
2024-04-10T08:11:30.333Z,28.66
2024-04-10T08:16:34.067Z,31.27
2024-04-10T08:21:38.925Z,33.47
2024-04-10T08:26:42.277Z,35.44
2024-04-10T08:31:46.406Z,36.68
2024-04-10T08:36:51.538Z,37.47
2024-04-10T08:41:57.064Z,38.21
2024-04-10T08:47:02.240Z,39.67
2024-04-10T08:52:05.464Z,40.83
2024-04-10T08:57:08.634Z,41.64
2024-04-10T09:02:13.920Z,41.80
2024-04-10T09:07:20.170Z,42.11
2024-04-10T09:12:24.505Z,43.10
2024-04-10T09:17:27.526Z,42.62
2024-04-10T09:22:30.722Z,43.90
2024-04-10T09:27:33.621Z,44.73
2024-04-10T09:32:37.928Z,45.32
2024-04-10T09:37:45.087Z,46.58
2024-04-10T09:42:52.573Z,46.50
2024-04-10T09:47:57.881Z,47.30
2024-04-10T09:53:03.282Z,47.05
2024-04-10T09:58:11.778Z,48.46
2024-04-10T10:03:27.525Z,49.33
2024-04-10T10:08:31.561Z,49.45
2024-04-10T10:13:42.953Z,50.54
2024-04-10T10:18:54.348Z,51.97
2024-04-10T10:24:08.390Z,51.56
2024-04-10T10:29:13.992Z,52.42
2024-04-10T10:34:27.468Z,52.85
2024-04-10T10:39:31.849Z,52.24
2024-04-10T10:44:35.107Z,52.13
2024-04-10T10:49:38.351Z,51.88
2024-04-10T10:54:41.580Z,51.31
2024-04-10T10:59:44.729Z,51.27
2024-04-10T11:04:48.036Z,48.73
2024-04-10T11:09:51.611Z,47.77
2024-04-10T11:14:54.668Z,46.21
2024-04-10T11:19:57.730Z,45.83
2024-04-10T11:25:01.949Z,44.85
2024-04-10T11:30:06.334Z,45.33
2024-04-10T11:35:14.856Z,44.69
2024-04-10T11:40:18.022Z,45.17
2024-04-10T11:45:21.035Z,45.07
2024-04-10T11:50:24.713Z,44.95
2024-04-10T11:55:29.737Z,44.83
2024-04-10T12:00:32.915Z,44.50
2024-04-10T12:05:39.046Z,45.23
2024-04-10T12:10:42.093Z,46.04
2024-04-10T12:15:45.049Z,47.00
2024-04-10T12:20:48.620Z,47.16
2024-04-10T12:25:51.814Z,47.47
2024-04-10T12:30:55.324Z,47.88
2024-04-10T12:36:19.836Z,48.40
2024-04-10T12:41:23.002Z,48.11
2024-04-10T12:46:29.095Z,48.14
2024-04-10T12:51:32.324Z,47.27
2024-04-10T12:56:36.704Z,46.11
2024-04-10T13:01:39.903Z,45.63
2024-04-10T13:06:43.380Z,45.30
2024-04-10T13:11:46.694Z,45.04
2024-04-10T13:16:49.766Z,45.58
2024-04-10T13:21:52.903Z,46.31
2024-04-10T13:26:56.211Z,46.20
2024-04-10T13:31:59.629Z,46.44
2024-04-10T13:37:03.042Z,46.28
2024-04-10T13:42:07.549Z,46.66
2024-04-10T13:47:10.892Z,47.25
2024-04-10T13:52:14.000Z,47.95
2024-04-10T13:57:19.187Z,48.88
2024-04-10T14:02:23.072Z,48.83
2024-04-10T14:07:26.087Z,48.66
2024-04-10T14:12:29.481Z,48.23
2024-04-10T14:17:33.272Z,47.70
2024-04-10T14:22:36.376Z,47.84
2024-04-10T14:27:39.952Z,48.48
2024-04-10T14:32:43.836Z,49.16
2024-04-10T14:37:47.281Z,49.19
2024-04-10T14:42:50.593Z,49.60
2024-04-10T14:47:53.689Z,50.24
2024-04-10T14:52:56.802Z,49.77
2024-04-10T14:58:01.340Z,49.91
2024-04-10T15:03:05.230Z,50.21
2024-04-10T15:08:08.683Z,50.57
2024-04-10T15:13:12.107Z,50.75
2024-04-10T15:18:15.313Z,50.87
2024-04-10T15:23:18.518Z,51.17
2024-04-10T15:28:22.791Z,51.53
2024-04-10T15:33:27.679Z,52.41
2024-04-10T15:38:31.978Z,52.15
2024-04-10T15:43:36.445Z,52.26
2024-04-10T15:48:39.602Z,52.68
2024-04-10T15:53:43.535Z,52.67
2024-04-10T15:58:47.329Z,53.18
2024-04-10T16:03:50.982Z,52.97
2024-04-10T16:08:57.934Z,53.29
2024-04-10T16:14:03.709Z,53.35
2024-04-10T16:19:07.416Z,54.60
2024-04-10T16:24:11.685Z,54.36
2024-04-10T16:29:15.382Z,54.96
2024-04-10T16:34:21.053Z,55.97
2024-04-10T16:39:27.328Z,55.88
2024-04-10T16:44:31.186Z,55.62
2024-04-10T16:49:35.059Z,56.87
2024-04-10T16:54:38.776Z,57.13
2024-04-10T16:59:49.281Z,57.18
2024-04-10T17:04:53.066Z,57.79
2024-04-10T17:09:57.209Z,58.37
2024-04-10T17:15:00.960Z,58.17
2024-04-10T17:20:23.515Z,59.06
2024-04-10T17:25:27.724Z,60.36
2024-04-10T17:30:30.842Z,59.24
2024-04-10T17:35:34.371Z,61.43
2024-04-10T17:40:38.511Z,62.51
2024-04-10T17:45:43.952Z,60.54
2024-04-10T17:50:52.330Z,61.69
2024-04-10T17:55:55.787Z,61.57
2024-04-10T18:01:04.974Z,60.26
2024-04-10T18:06:12.969Z,60.45
2024-04-10T18:11:16.666Z,60.52
2024-04-10T18:16:23.190Z,60.94
2024-04-10T18:21:27.122Z,61.19
2024-04-10T18:26:30.714Z,61.32
2024-04-10T18:31:34.261Z,61.15
2024-04-10T18:36:37.685Z,61.44
2024-04-10T18:41:41.248Z,60.69
2024-04-10T18:46:45.248Z,60.89
2024-04-10T18:51:50.238Z,60.60
2024-04-10T18:56:54.133Z,61.42
2024-04-10T19:01:58.472Z,62.10
2024-04-10T19:07:02.304Z,60.73
2024-04-10T19:12:07.961Z,61.41
2024-04-10T19:17:11.464Z,63.36
2024-04-10T19:22:16.982Z,63.72
2024-04-10T19:27:20.874Z,62.86
2024-04-10T19:32:24.331Z,63.93
2024-04-10T19:37:27.806Z,63.98
2024-04-10T19:42:31.327Z,64.89
2024-04-10T19:47:36.627Z,65.68
2024-04-10T19:52:43.199Z,66.54
2024-04-10T19:57:49.890Z,66.20
2024-04-10T20:02:53.267Z,66.04
2024-04-10T20:07:56.688Z,67.32
2024-04-10T20:13:00.835Z,67.18
2024-04-10T20:18:11.893Z,67.31
2024-04-10T20:23:16.094Z,67.58
2024-04-10T20:28:20.193Z,67.91
2024-04-10T20:33:25.431Z,68.16
2024-04-10T20:38:35.065Z,68.13
2024-04-10T20:43:41.992Z,68.83
2024-04-10T20:48:51.302Z,68.77
2024-04-10T20:53:54.877Z,68.95
2024-04-10T20:58:58.456Z,69.36
2024-04-10T21:04:01.935Z,69.39
2024-04-10T21:09:23.954Z,69.92
2024-04-10T21:14:46.347Z,70.32
2024-04-10T21:20:08.939Z,70.31
2024-04-10T21:25:31.712Z,70.54
2024-04-10T21:30:57.555Z,71.42
2024-04-10T21:36:19.909Z,71.82
2024-04-10T21:41:42.283Z,72.18
2024-04-10T21:47:04.211Z,72.65
2024-04-10T21:52:26.410Z,73.70
2024-04-10T21:57:48.336Z,73.55
2024-04-10T22:03:10.262Z,73.81
2024-04-10T22:08:32.224Z,73.85
2024-04-10T22:13:35.214Z,74.44
2024-04-10T22:18:57.669Z,74.40
2024-04-10T22:24:03.860Z,73.97
2024-04-10T22:29:07.060Z,75.04
2024-04-10T22:34:10.111Z,75.13
2024-04-10T22:39:13.226Z,74.93
2024-04-10T22:44:18.048Z,75.26
2024-04-10T22:49:21.944Z,75.31
2024-04-10T22:54:24.936Z,75.70
2024-04-10T22:59:28.373Z,76.16
2024-04-10T23:04:31.651Z,76.47
2024-04-10T23:09:34.907Z,74.79
2024-04-10T23:14:38.118Z,76.05
2024-04-10T23:19:41.356Z,76.39
2024-04-10T23:24:45.623Z,75.58
2024-04-10T23:29:53.309Z,76.36
2024-04-10T23:34:56.453Z,76.31
2024-04-10T23:39:59.659Z,76.17
2024-04-10T23:45:03.004Z,76.29
2024-04-10T23:50:08.644Z,76.10
2024-04-10T23:55:11.740Z,76.87
